Time;durP1;ratioP1;P1;durP2;ratioP2;P2;SDS_P1;SDS_P2;PMS_P1;PMS_P2;Temp;Humidity;BMP_temperature;BMP_pressure;BME280_temperature;BME280_humidity;BME280_pressure;Samples;Min_cycle;Max_cycle;Signal;HPM_P1;HPM_P2
2023/02/18 00:02:00;;;;;;;48.80;27.40;;;;;;;4.19;68.52;100061.62;107669;1257;75889;-78
2023/02/18 00:04:44;;;;;;;50.80;27.70;;;;;;;4.24;68.63;100065.17;107608;1257;72775;-76
2023/02/18 00:07:15;;;;;;;54.30;28.10;;;;;;;4.27;68.55;100057.21;107569;1263;73622;-77
2023/02/18 00:09:43;;;;;;;56.10;29.00;;;;;;;4.27;68.62;100049.95;107669;1259;61495;-76
2023/02/18 00:12:11;;;;;;;54.10;28.00;;;;;;;4.28;68.77;100044.66;107642;1258;61334;-77
2023/02/18 00:14:43;;;;;;;53.20;26.70;;;;;;;4.28;68.63;100033.20;108303;1260;75662;-82
2023/02/18 00:17:31;;;;;;;54.30;26.80;;;;;;;4.28;68.69;100029.33;107663;1260;73033;-77
2023/02/18 00:20:01;;;;;;;55.40;27.00;;;;;;;4.28;68.80;100025.14;107661;1262;72416;-76
2023/02/18 00:22:42;;;;;;;55.30;28.40;;;;;;;4.28;69.06;100022.66;107615;1257;62146;-76
2023/02/18 00:25:35;;;;;;;57.10;27.50;;;;;;;4.30;69.05;100009.89;107609;1263;61610;-75
2023/02/18 00:28:14;;;;;;;58.80;27.70;;;;;;;4.33;69.04;100002.36;107674;1262;74874;-76
2023/02/18 00:30:43;;;;;;;60.80;28.60;;;;;;;4.34;69.17;99994.80;104952;1258;3611494;-77
2023/02/18 00:33:17;;;;;;;55.50;27.10;;;;;;;4.35;69.27;99986.81;107681;1259;73940;-76
2023/02/18 00:35:53;;;;;;;59.10;27.80;;;;;;;4.35;69.37;99981.90;107596;1259;60403;-76
2023/02/18 00:38:32;;;;;;;60.50;28.40;;;;;;;4.36;69.47;99970.77;107706;1257;61097;-76
2023/02/18 00:41:18;;;;;;;57.20;28.00;;;;;;;4.39;69.58;99954.21;107677;1258;74692;-77
2023/02/18 00:44:04;;;;;;;64.70;29.90;;;;;;;4.41;69.61;99947.36;107623;1262;71721;-76
2023/02/18 00:46:35;;;;;;;59.90;28.50;;;;;;;4.42;69.60;99937.11;107603;1259;73719;-76
2023/02/18 00:49:15;;;;;;;64.20;29.00;;;;;;;4.42;69.67;99923.10;107703;1260;62235;-76
2023/02/18 00:51:58;;;;;;;62.20;28.00;;;;;;;4.41;69.72;99911.45;107523;1259;59740;-77
2023/02/18 00:54:47;;;;;;;60.70;29.80;;;;;;;4.40;69.75;99908.34;107524;1258;74349;-82
2023/02/18 00:57:40;;;;;;;;;;;;;;;4.40;69.90;99897.20;107692;1260;73009;-78
2023/02/18 01:00:27;;;;;;;55.50;27.80;;;;;;;4.41;70.05;99892.88;107638;1258;73911;-78
2023/02/18 01:03:05;;;;;;;55.40;28.50;;;;;;;4.42;70.06;99885.38;107653;1261;60986;-79
2023/02/18 01:05:45;;;;;;;57.40;28.20;;;;;;;4.45;70.25;99875.83;107549;1259;61222;-80
2023/02/18 01:08:14;;;;;;;60.60;29.80;;;;;;;4.49;70.24;99866.84;107605;1261;74496;-79
2023/02/18 01:10:51;;;;;;;61.00;29.10;;;;;;;4.53;70.23;99861.97;107614;1262;73689;-78
2023/02/18 01:13:36;;;;;;;56.10;27.20;;;;;;;4.57;70.35;99850.98;107588;1260;72470;-80
2023/02/18 01:16:48;;;;;;;58.40;28.90;;;;;;;4.59;70.34;99845.00;107640;1257;61042;-78
2023/02/18 01:19:16;;;;;;;62.10;29.20;;;;;;;4.61;70.33;99833.73;107492;1260;62777;-77
2023/02/18 01:21:43;;;;;;;62.80;30.10;;;;;;;4.64;70.43;99826.14;107648;1262;74456;-82
2023/02/18 01:24:11;;;;;;;62.00;28.90;;;;;;;4.64;70.50;99809.91;107527;1258;72418;-78
2023/02/18 01:26:38;;;;;;;61.90;30.00;;;;;;;4.64;70.35;99803.67;107495;1259;72047;-80
2023/02/18 01:29:05;;;;;;;58.90;29.50;;;;;;;4.63;70.49;99797.14;107482;1265;59433;-78
2023/02/18 01:31:32;;;;;;;63.90;30.30;;;;;;;4.62;70.40;99789.08;107560;1257;61423;-83
2023/02/18 01:34:00;;;;;;;65.00;31.40;;;;;;;4.62;70.51;99775.86;107573;1257;73849;-77
2023/02/18 01:36:28;;;;;;;68.90;31.80;;;;;;;4.62;70.63;99763.23;107695;1262;72883;-77
2023/02/18 01:38:55;;;;;;;63.20;31.70;;;;;;;4.63;70.72;99757.09;107573;1259;73713;-77
2023/02/18 01:41:23;;;;;;;62.90;31.60;;;;;;;4.64;70.70;99752.61;107676;1258;61173;-80
2023/02/18 01:44:11;;;;;;;61.40;29.90;;;;;;;4.63;70.72;99742.65;107651;1259;61287;-80
2023/02/18 01:46:38;;;;;;;70.10;33.50;;;;;;;4.64;70.88;99736.66;107722;1259;72898;-77
2023/02/18 01:49:05;;;;;;;67.90;31.70;;;;;;;4.64;70.91;99725.86;107640;1263;73073;-78
2023/02/18 01:51:38;;;;;;;65.00;31.60;;;;;;;4.67;71.09;99721.98;107497;1263;72340;-79
2023/02/18 01:54:08;;;;;;;66.20;33.30;;;;;;;4.69;71.10;99712.40;107435;1258;61795;-79
2023/02/18 01:56:36;;;;;;;61.70;31.60;;;;;;;4.70;71.27;99710.31;107564;1258;61350;-78
2023/02/18 01:59:10;;;;;;;60.20;30.70;;;;;;;4.69;71.17;99706.05;107575;1262;76139;-78
2023/02/18 02:01:38;;;;;;;57.70;30.10;;;;;;;4.69;71.29;99699.44;107619;1258;73689;-78
2023/02/18 02:04:05;;;;;;;66.80;32.20;;;;;;;4.70;71.51;99693.70;107614;1262;72918;-78
2023/02/18 02:06:33;;;;;;;62.90;32.40;;;;;;;4.73;71.49;99683.27;107580;1261;60944;-78
2023/02/18 02:09:01;;;;;;;62.80;32.20;;;;;;;4.76;71.53;99674.52;107628;1262;60501;-76
2023/02/18 02:11:53;;;;;;;66.70;33.00;;;;;;;4.77;71.56;99666.93;107592;1258;74395;-79
2023/02/18 02:14:28;;;;;;;63.30;32.00;;;;;;;4.78;71.70;99661.34;107497;1258;72290;-80
2023/02/18 02:17:03;;;;;;;61.50;31.60;;;;;;;4.79;71.63;99653.25;107540;1257;71859;-78
2023/02/18 02:19:59;;;;;;;62.80;29.60;;;;;;;4.79;71.64;99650.88;107524;1263;62200;-79
2023/02/18 02:22:32;;;;;;;61.40;31.50;;;;;;;4.77;71.52;99643.45;107609;1263;59041;-81
2023/02/18 02:25:19;;;;;;;61.40;31.80;;;;;;;4.75;71.55;99636.58;107626;1257;75694;-80
2023/02/18 02:28:38;;;;;;;60.40;30.70;;;;;;;4.73;71.57;99629.09;107588;1262;72216;-81
2023/02/18 02:31:27;;;;;;;63.20;32.10;;;;;;;4.69;71.64;99627.59;107547;1262;73014;-80
2023/02/18 02:34:04;;;;;;;62.40;32.00;;;;;;;4.68;71.65;99616.38;107730;1262;61346;-81
2023/02/18 02:37:00;;;;;;;59.70;31.60;;;;;;;4.66;71.65;99613.90;107712;1258;61531;-80
2023/02/18 02:39:37;;;;;;;59.00;29.70;;;;;;;4.67;71.76;99604.17;107542;1263;75570;-81
2023/02/18 02:42:22;;;;;;;57.60;30.60;;;;;;;4.67;71.63;99591.95;107726;1257;71999;-82
2023/02/18 02:44:53;;;;;;;55.80;29.00;;;;;;;4.66;71.73;99582.63;107735;1261;73841;-79
2023/02/18 02:47:36;;;;;;;59.10;31.40;;;;;;;4.63;71.48;99578.52;107717;1257;61371;-83
2023/02/18 02:50:06;;;;;;;57.50;29.50;;;;;;;4.59;71.47;99575.92;107673;1257;61135;-83
2023/02/18 02:52:37;;;;;;;52.60;28.50;;;;;;;4.56;71.47;99569.52;107686;1258;75244;-81
2023/02/18 02:55:09;;;;;;;;;;;;;;;4.54;71.51;99565.73;107583;1258;70952;-81
2023/02/18 02:57:44;;;;;;;58.00;28.70;;;;;;;4.50;71.39;99559.48;107737;1257;71827;-82
2023/02/18 03:00:17;;;;;;;58.20;30.60;;;;;;;4.46;71.39;99548.91;107741;1257;60483;-82
2023/02/18 03:02:59;;;;;;;54.70;29.30;;;;;;;4.45;71.43;99547.05;107687;1257;61181;-80
2023/02/18 03:05:38;;;;;;;57.20;30.70;;;;;;;4.43;71.50;99537.39;107751;1258;72863;-78
2023/02/18 03:08:18;;;;;;;53.00;28.80;;;;;;;4.40;71.54;99531.56;107743;1263;73032;-80
2023/02/18 03:11:11;;;;;;;55.40;29.40;;;;;;;4.39;71.55;99534.52;107736;1263;70978;-76
2023/02/18 03:13:46;;;;;;;51.30;27.80;;;;;;;4.40;71.70;99526.88;107706;1262;61212;-79
2023/02/18 03:16:36;;;;;;;52.00;28.90;;;;;;;4.41;71.73;99522.83;107597;1257;61135;-81
2023/02/18 03:19:11;;;;;;;51.00;28.40;;;;;;;4.41;71.93;99516.52;107674;1257;74673;-80
2023/02/18 03:21:53;;;;;;;48.90;27.20;;;;;;;4.42;71.96;99500.89;107546;1257;72584;-81
2023/02/18 03:24:23;;;;;;;52.50;27.60;;;;;;;4.42;71.99;99496.71;107662;1263;70666;-79
2023/02/18 03:26:55;;;;;;;48.50;26.10;;;;;;;4.41;72.09;99489.89;107654;1258;61873;-81
2023/02/18 03:29:22;;;;;;;51.50;27.70;;;;;;;4.41;72.18;99481.27;107545;1257;63229;-80
2023/02/18 03:31:53;;;;;;;46.20;26.10;;;;;;;4.41;72.20;99485.13;107684;1260;74840;-81
2023/02/18 03:34:28;;;;;;;48.10;26.00;;;;;;;4.41;72.26;99477.48;107681;1257;73313;-81
2023/02/18 03:36:57;;;;;;;45.50;26.70;;;;;;;4.42;72.37;99472.17;107739;1257;72985;-84
2023/02/18 03:39:26;;;;;;;51.70;28.00;;;;;;;4.42;72.47;99466.89;107705;1257;61051;-82
2023/02/18 03:41:53;;;;;;;45.40;24.80;;;;;;;4.43;72.51;99462.88;107812;1257;60973;-82
2023/02/18 03:44:20;;;;;;;48.40;28.60;;;;;;;4.43;72.66;99450.50;107694;1261;74826;-82
2023/02/18 03:46:47;;;;;;;47.40;26.40;;;;;;;4.43;72.72;99443.02;107842;1258;72515;-83
2023/02/18 03:49:15;;;;;;;48.90;26.70;;;;;;;4.44;72.82;99441.06;107842;1262;71504;-83
2023/02/18 03:51:42;;;;;;;46.80;26.50;;;;;;;4.44;72.94;99439.16;107702;1257;61699;-81
2023/02/18 03:54:09;;;;;;;47.10;28.30;;;;;;;4.43;72.92;99430.88;107794;1258;61146;-82
2023/02/18 03:56:37;;;;;;;48.00;28.10;;;;;;;4.43;73.00;99426.29;107798;1257;74834;-81
2023/02/18 03:59:05;;;;;;;45.40;25.60;;;;;;;4.43;73.05;99410.42;107823;1258;73913;-80
2023/02/18 04:01:34;;;;;;;47.90;27.70;;;;;;;4.44;73.13;99399.34;107762;1262;72056;-81
2023/02/18 04:04:02;;;;;;;45.60;25.40;;;;;;;4.45;73.18;99396.02;107822;1257;61642;-82
2023/02/18 04:06:29;;;;;;;46.60;26.40;;;;;;;4.48;73.38;99400.29;107831;1257;61235;-82
2023/02/18 04:08:56;;;;;;;43.90;25.30;;;;;;;4.49;73.18;99385.28;107798;1258;74301;-82
2023/02/18 04:11:23;;;;;;;44.40;25.40;;;;;;;4.50;73.30;99377.14;107773;1257;72786;-82
2023/02/18 04:13:50;;;;;;;45.80;27.00;;;;;;;4.50;73.27;99370.69;107819;1257;72112;-81
2023/02/18 04:16:22;;;;;;;40.60;24.40;;;;;;;4.51;73.30;99372.08;107828;1263;61263;-81
2023/02/18 04:18:54;;;;;;;45.40;24.90;;;;;;;4.53;73.39;99366.02;107888;1257;61184;-81
2023/02/18 04:21:21;;;;;;;46.30;26.30;;;;;;;4.54;73.42;99359.10;107882;1257;74669;-80
2023/02/18 04:23:48;;;;;;;39.80;23.20;;;;;;;4.54;73.34;99356.09;107871;1257;71948;-80
2023/02/18 04:26:15;;;;;;;41.30;23.50;;;;;;;4.56;73.37;99355.38;107961;1257;72726;-80
2023/02/18 04:28:46;;;;;;;42.90;25.80;;;;;;;4.56;73.35;99340.94;107872;1257;61279;-81
2023/02/18 04:31:14;;;;;;;42.80;24.90;;;;;;;4.57;73.42;99342.38;107868;1257;61602;-82
2023/02/18 04:33:41;;;;;;;39.70;23.60;;;;;;;4.58;73.54;99330.53;107876;1257;73495;-82
2023/02/18 04:36:08;;;;;;;40.10;23.90;;;;;;;4.59;73.36;99326.80;107862;1258;71489;-81
2023/02/18 04:38:38;;;;;;;38.50;23.10;;;;;;;4.59;73.29;99318.60;107793;1262;72844;-80
2023/02/18 04:41:05;;;;;;;39.90;24.40;;;;;;;4.58;73.47;99316.59;107843;1257;61362;-82
2023/02/18 04:43:34;;;;;;;40.30;23.00;;;;;;;4.58;73.44;99320.38;107872;1257;61269;-80
2023/02/18 04:46:02;;;;;;;40.00;23.80;;;;;;;4.59;73.60;99316.02;107871;1257;73242;-82
2023/02/18 04:48:29;;;;;;;36.40;22.40;;;;;;;4.60;73.56;99304.37;107848;1257;73833;-81
2023/02/18 04:50:56;;;;;;;38.70;22.70;;;;;;;4.60;73.64;99303.11;107758;1258;71811;-82
2023/02/18 04:53:23;;;;;;;41.00;24.40;;;;;;;4.59;73.69;99296.33;107869;1257;61307;-80
2023/02/18 04:55:51;;;;;;;34.40;22.10;;;;;;;4.59;73.78;99291.41;107848;1257;61544;-80
2023/02/18 04:58:19;;;;;;;36.20;22.10;;;;;;;4.60;73.81;99285.20;107804;1257;74742;-82
2023/02/18 05:00:46;;;;;;;35.70;20.70;;;;;;;4.62;73.91;99277.86;107847;1257;70992;-82
2023/02/18 05:03:13;;;;;;;38.00;21.50;;;;;;;4.64;73.97;99270.36;107871;1257;72144;-83
2023/02/18 05:05:40;;;;;;;37.60;21.80;;;;;;;4.66;73.98;99267.94;107820;1257;61230;-83
2023/02/18 05:08:09;;;;;;;35.10;21.20;;;;;;;4.67;74.06;99262.61;107818;1257;61435;-81
2023/02/18 05:10:39;;;;;;;35.70;20.80;;;;;;;4.69;74.12;99254.65;107745;1257;73490;-81
2023/02/18 05:13:07;;;;;;;31.30;18.40;;;;;;;4.72;74.29;99249.45;107848;1257;72163;-79
2023/02/18 05:15:34;;;;;;;36.40;22.00;;;;;;;4.75;74.34;99245.23;107852;1257;73732;-81
2023/02/18 05:18:02;;;;;;;34.00;20.40;;;;;;;4.78;74.45;99241.94;107766;1257;61252;-80
2023/02/18 05:20:29;;;;;;;35.60;20.90;;;;;;;4.80;74.51;99239.45;107858;1262;61114;-82
2023/02/18 05:22:57;;;;;;;36.50;21.40;;;;;;;4.78;74.62;99242.40;107831;1257;73799;-80
2023/02/18 05:25:24;;;;;;;38.60;22.10;;;;;;;4.76;74.67;99230.27;107833;1257;72966;-80
2023/02/18 05:27:54;;;;;;;34.90;21.00;;;;;;;4.78;74.79;99222.94;107822;1257;72645;-81
2023/02/18 05:30:22;;;;;;;36.50;22.40;;;;;;;4.79;74.82;99210.77;107816;1258;61318;-80
2023/02/18 05:32:49;;;;;;;34.60;21.30;;;;;;;4.82;75.01;99186.62;107820;1257;61109;-81
2023/02/18 05:35:15;;;;;;;36.70;21.70;;;;;;;4.87;74.94;99201.69;107813;1257;75962;-79
2023/02/18 05:37:42;;;;;;;34.10;20.20;;;;;;;4.90;74.96;99202.52;107759;1257;73425;-79
2023/02/18 05:40:10;;;;;;;33.60;20.20;;;;;;;4.94;75.03;99206.02;107684;1257;72978;-82
2023/02/18 05:42:37;;;;;;;35.40;20.80;;;;;;;4.97;74.90;99200.19;107762;1257;61239;-81
2023/02/18 05:45:04;;;;;;;33.20;20.40;;;;;;;5.00;74.96;99197.98;107773;1257;61121;-82
2023/02/18 05:47:32;;;;;;;32.40;19.80;;;;;;;5.04;75.02;99196.95;107813;1257;75697;-82
2023/02/18 05:50:00;;;;;;;34.00;19.10;;;;;;;5.08;74.95;99190.31;107836;1257;73438;-81
2023/02/18 05:52:27;;;;;;;31.70;19.30;;;;;;;5.11;75.09;99195.20;107842;1257;72770;-81
2023/02/18 05:55:08;;;;;;;32.80;19.10;;;;;;;5.14;75.06;99192.00;107771;1257;61238;-82
2023/02/18 05:57:42;;;;;;;34.80;20.70;;;;;;;5.16;75.12;99187.52;107867;1257;61206;-82
2023/02/18 06:00:11;;;;;;;33.30;20.40;;;;;;;5.20;75.24;99181.23;107633;1257;73961;-82
2023/02/18 06:02:41;;;;;;;32.10;20.30;;;;;;;5.25;75.26;99194.88;107811;1257;73866;-81
2023/02/18 06:05:09;;;;;;;32.70;19.50;;;;;;;5.29;75.36;99197.55;107802;1257;73751;-83
2023/02/18 06:07:40;;;;;;;32.10;20.10;;;;;;;5.32;75.37;99186.80;107859;1257;62176;-82
2023/02/18 06:10:14;;;;;;;31.30;18.90;;;;;;;5.36;75.45;99176.83;107797;1257;61190;-82
2023/02/18 06:12:46;;;;;;;27.70;16.70;;;;;;;5.46;75.62;99161.52;107881;1257;75632;-85
2023/02/18 06:15:22;;;;;;;28.10;16.90;;;;;;;5.60;75.76;99160.05;107768;1257;73061;-81
2023/02/18 06:17:59;;;;;;;26.40;16.90;;;;;;;5.72;75.94;99159.63;107785;1262;73782;-83
2023/02/18 06:20:42;;;;;;;25.60;15.70;;;;;;;5.83;76.01;99157.14;107678;1258;61122;-81
2023/02/18 06:23:11;;;;;;;27.70;17.30;;;;;;;5.91;75.94;99147.05;107763;1257;61137;-83
2023/02/18 06:25:47;;;;;;;30.30;17.30;;;;;;;5.96;75.88;99151.79;107803;1258;75819;-83
2023/02/18 06:28:30;;;;;;;27.30;17.40;;;;;;;5.99;75.94;99150.31;107660;1257;72625;-83
2023/02/18 06:31:01;;;;;;;25.20;16.20;;;;;;;6.03;75.94;99143.17;107721;1257;72948;-83
2023/02/18 06:33:32;;;;;;;28.40;16.50;;;;;;;6.11;76.07;99152.58;107572;1257;62203;-85
2023/02/18 06:36:07;;;;;;;24.90;15.80;;;;;;;6.16;76.07;99149.68;107823;1262;61219;-84
2023/02/18 06:38:45;;;;;;;23.60;15.10;;;;;;;6.23;76.04;99141.46;107755;1257;74563;-83
2023/02/18 06:41:24;;;;;;;24.20;14.80;;;;;;;6.31;76.03;99141.52;107817;1257;72536;-84
2023/02/18 06:43:53;;;;;;;24.80;15.70;;;;;;;6.37;76.13;99132.62;107629;1257;71008;-83
2023/02/18 06:46:35;;;;;;;23.60;14.50;;;;;;;6.46;76.06;99133.54;107824;1257;60965;-83
2023/02/18 06:49:13;;;;;;;23.80;15.10;;;;;;;6.51;76.03;99128.71;107667;1257;61145;-83
2023/02/18 06:51:48;;;;;;;22.50;13.90;;;;;;;6.57;75.99;99125.85;107678;1257;74565;-82
2023/02/18 06:54:27;;;;;;;24.70;14.40;;;;;;;6.90;75.13;99117.55;107909;1257;72612;-82
2023/02/18 06:56:58;;;;;;;20.40;13.60;;;;;;;6.67;75.51;99113.27;107656;1260;72251;-83
2023/02/18 06:59:40;;;;;;;18.20;11.90;;;;;;;6.67;75.59;99117.63;107947;1262;61058;-82
2023/02/18 07:02:31;;;;;;;18.90;13.00;;;;;;;6.69;75.86;99110.67;107882;1256;61215;-81
2023/02/18 07:05:11;;;;;;;19.90;12.80;;;;;;;6.79;76.03;99104.87;107910;1257;74635;-83
2023/02/18 07:07:46;;;;;;;19.00;12.70;;;;;;;6.88;76.05;99102.59;107683;1256;72888;-82
2023/02/18 07:10:33;;;;;;;19.20;12.60;;;;;;;6.97;76.16;99100.13;107759;1257;73579;-85
2023/02/18 07:13:14;;;;;;;21.70;13.00;;;;;;;7.09;76.29;99107.86;107781;1257;61105;-87
2023/02/18 07:15:54;;;;;;;18.50;12.10;;;;;;;7.23;76.39;99106.75;107774;1262;61159;-88
2023/02/18 07:18:46;;;;;;;19.40;12.30;;;;;;;7.39;76.28;99103.35;107839;1258;75877;-85
2023/02/18 07:21:39;;;;;;;18.40;12.30;;;;;;;7.57;76.06;99113.43;107773;1257;72048;-84
2023/02/18 07:24:37;;;;;;;18.60;12.60;;;;;;;7.68;75.69;99111.80;107726;1257;70531;-85
2023/02/18 07:27:38;;;;;;;18.20;11.80;;;;;;;7.78;75.44;99110.20;107776;1257;61890;-84
2023/02/18 07:30:26;;;;;;;17.60;11.80;;;;;;;7.83;75.21;99109.65;107809;1257;61605;-84
2023/02/18 07:33:16;;;;;;;17.00;11.70;;;;;;;7.85;75.22;99101.34;107742;1257;75742;-85
2023/02/18 07:36:09;;;;;;;14.30;10.50;;;;;;;7.89;75.15;99109.98;107828;1257;72832;-85
2023/02/18 07:38:57;;;;;;;15.90;11.20;;;;;;;7.90;75.06;99125.25;107800;1258;70866;-87
2023/02/18 07:41:31;;;;;;;14.60;10.20;;;;;;;7.91;75.14;99137.42;107708;1257;61201;-84
2023/02/18 07:44:09;;;;;;;13.00;9.40;;;;;;;7.93;75.26;99144.84;107875;1257;61183;-84
2023/02/18 07:46:43;;;;;;;14.20;9.50;;;;;;;8.00;75.38;99142.77;107861;1257;72592;-83
2023/02/18 07:49:28;;;;;;;10.40;7.60;;;;;;;8.09;75.50;99142.86;107866;1257;73604;-84
2023/02/18 07:52:20;;;;;;;10.50;7.00;;;;;;;8.16;75.16;99141.10;107877;1257;73187;-86
2023/02/18 07:55:16;;;;;;;8.30;6.20;;;;;;;8.27;74.48;99144.12;107819;1257;61899;-80
2023/02/18 07:58:01;;;;;;;8.00;4.60;;;;;;;8.35;73.29;99140.24;107860;1257;61278;-82
2023/02/18 08:00:48;;;;;;;8.20;5.00;;;;;;;8.46;71.71;99142.80;107848;1257;74418;-88
2023/02/18 08:03:39;;;;;;;7.80;4.50;;;;;;;8.52;70.75;99151.42;107678;1257;72598;-80
2023/02/18 08:06:31;;;;;;;6.60;4.00;;;;;;;8.55;70.26;99141.45;107739;1258;71685;-85
2023/02/18 08:09:09;;;;;;;6.90;4.50;;;;;;;8.54;69.98;99132.51;107793;1262;61710;-79
2023/02/18 08:12:09;;;;;;;8.40;4.30;;;;;;;8.57;69.84;99126.16;107819;1257;61132;-80
2023/02/18 08:15:07;;;;;;;6.90;3.90;;;;;;;8.56;69.23;99120.74;107811;1257;74644;-80
2023/02/18 08:17:54;;;;;;;6.50;3.90;;;;;;;8.59;69.13;99117.05;107802;1257;71726;-81
2023/02/18 08:20:44;;;;;;;6.90;4.20;;;;;;;8.79;68.98;99114.05;107815;1262;73711;-81
2023/02/18 08:23:27;;;;;;;7.00;4.00;;;;;;;8.88;68.51;99116.80;107810;1257;63203;-84
2023/02/18 08:26:11;;;;;;;7.80;3.70;;;;;;;8.91;67.53;99105.21;107828;1257;61094;-78
2023/02/18 08:28:45;;;;;;;6.40;3.50;;;;;;;8.76;67.58;99103.80;107855;1257;74744;-85
2023/02/18 08:31:25;;;;;;;6.40;3.10;;;;;;;8.45;68.03;99100.28;107853;1257;72096;-84
2023/02/18 08:33:54;;;;;;;8.60;3.60;;;;;;;8.37;68.02;99096.96;107848;1257;72608;-81
2023/02/18 08:36:25;;;;;;;6.60;3.00;;;;;;;8.42;68.17;99110.79;107857;1258;61195;-82
2023/02/18 08:38:58;;;;;;;6.10;2.40;;;;;;;8.48;67.62;99110.90;107746;1258;61470;-85
2023/02/18 08:41:25;;;;;;;5.20;2.00;;;;;;;8.53;67.05;99117.56;107729;1257;75884;-80
2023/02/18 08:43:51;;;;;;;4.40;1.90;;;;;;;8.54;66.51;99131.20;107809;1257;71170;-82
2023/02/18 08:46:18;;;;;;;4.60;1.90;;;;;;;8.54;65.84;99125.55;107778;1257;72125;-80
2023/02/18 08:49:03;;;;;;;4.10;1.70;;;;;;;8.55;65.62;99129.73;107806;1257;61101;-79
2023/02/18 08:51:30;;;;;;;4.90;1.90;;;;;;;8.55;65.46;99127.88;107798;1257;61348;-83
2023/02/18 08:53:58;;;;;;;5.50;1.80;;;;;;;8.53;65.37;99134.82;107852;1257;73413;-79
2023/02/18 08:56:25;;;;;;;6.40;1.90;;;;;;;8.48;64.96;99144.77;107838;1257;73039;-80
2023/02/18 08:58:53;;;;;;;5.70;2.30;;;;;;;8.42;65.03;99140.05;107801;1257;73477;-80
2023/02/18 09:01:20;;;;;;;5.70;2.10;;;;;;;8.42;65.16;99140.15;107831;1257;62251;-79
2023/02/18 09:03:47;;;;;;;6.90;2.10;;;;;;;8.47;65.23;99135.87;107841;1258;61005;-79
2023/02/18 09:06:14;;;;;;;4.70;1.90;;;;;;;8.49;65.19;99141.71;107853;1257;74590;-76
2023/02/18 09:08:41;;;;;;;5.30;2.30;;;;;;;8.52;65.07;99146.21;107792;1258;71816;-77
2023/02/18 09:11:09;;;;;;;5.70;2.30;;;;;;;8.58;65.11;99137.86;107815;1257;73095;-77
2023/02/18 09:13:37;;;;;;;7.20;2.40;;;;;;;8.64;65.23;99137.87;107815;1257;61260;-81
2023/02/18 09:16:06;;;;;;;6.90;2.50;;;;;;;8.66;65.24;99135.08;107693;1257;61212;-77
2023/02/18 09:18:37;;;;;;;7.50;2.40;;;;;;;8.67;65.16;99134.65;107809;1258;75446;-79
2023/02/18 09:21:05;;;;;;;7.10;2.40;;;;;;;8.66;65.12;99142.27;107802;1257;72636;-78
2023/02/18 09:23:33;;;;;;;4.90;2.20;;;;;;;8.67;65.04;99140.55;107824;1257;73922;-83
2023/02/18 09:26:05;;;;;;;6.30;2.30;;;;;;;8.64;64.94;99137.83;107816;1257;63151;-78
2023/02/18 09:28:33;;;;;;;5.00;2.20;;;;;;;8.66;64.98;99135.99;107622;1257;60261;-80
2023/02/18 09:31:08;;;;;;;4.90;2.30;;;;;;;8.67;64.96;99135.82;107855;1257;74581;-80
2023/02/18 09:33:42;;;;;;;7.50;2.80;;;;;;;8.70;65.10;99133.83;107819;1257;72087;-77
2023/02/18 09:36:12;;;;;;;6.90;2.80;;;;;;;8.70;65.13;99130.67;107806;1257;73389;-79
2023/02/18 09:38:39;;;;;;;6.30;2.60;;;;;;;8.73;65.30;99129.02;107821;1258;61851;-78
2023/02/18 09:41:13;;;;;;;6.40;2.90;;;;;;;8.70;65.34;99129.20;107696;1257;61256;-82
2023/02/18 09:43:42;;;;;;;5.90;2.50;;;;;;;8.66;65.51;99126.94;107832;1257;73812;-82
2023/02/18 09:46:27;;;;;;;6.90;3.00;;;;;;;8.62;65.54;99124.31;107837;1257;73161;-78
2023/02/18 09:48:54;;;;;;;7.40;3.30;;;;;;;8.63;65.47;99124.63;107666;1258;73422;-77
2023/02/18 09:51:21;;;;;;;6.10;2.60;;;;;;;8.63;65.41;99127.88;107736;1257;62127;-79
2023/02/18 09:53:48;;;;;;;5.40;2.70;;;;;;;8.65;65.15;99126.09;107804;1257;61296;-79
2023/02/18 09:56:19;;;;;;;6.10;2.50;;;;;;;8.68;64.73;99130.13;107833;1259;74844;-77
2023/02/18 09:58:46;;;;;;;6.20;2.70;;;;;;;8.77;64.79;99122.42;107806;1257;71873;-76
2023/02/18 10:01:25;;;;;;;5.50;2.60;;;;;;;8.85;64.58;99128.54;107558;1258;72705;-78
2023/02/18 10:03:52;;;;;;;5.20;2.40;;;;;;;8.95;64.14;99122.05;107811;1258;61482;-76
2023/02/18 10:06:24;;;;;;;5.70;2.60;;;;;;;9.03;63.46;99130.45;107771;1257;61136;-78
2023/02/18 10:08:52;;;;;;;5.90;3.00;;;;;;;9.08;62.59;99118.94;107818;1257;75924;-82
2023/02/18 10:11:34;;;;;;;4.90;2.10;;;;;;;9.12;61.52;99133.81;107794;1257;73039;-76
2023/02/18 10:14:01;;;;;;;7.10;2.60;;;;;;;9.16;60.80;99127.59;107810;1257;72927;-75
2023/02/18 10:16:28;;;;;;;7.50;2.60;;;;;;;9.17;60.39;99124.06;107816;1257;62114;-78
2023/02/18 10:18:57;;;;;;;6.50;2.40;;;;;;;9.15;60.16;99116.20;107882;1258;61210;-83
2023/02/18 10:21:30;;;;;;;6.70;2.60;;;;;;;9.18;60.28;99120.55;107827;1261;74060;-79
2023/02/18 10:24:19;;;;;;;7.00;2.30;;;;;;;9.17;60.23;99117.20;107688;1257;72519;-77
2023/02/18 10:26:45;;;;;;;8.60;2.60;;;;;;;9.15;59.63;99129.27;107796;1257;71138;-77
2023/02/18 10:29:14;;;;;;;5.50;2.00;;;;;;;9.16;59.25;99132.52;107824;1257;61113;-81
2023/02/18 10:31:55;;;;;;;7.20;2.20;;;;;;;9.16;58.93;99122.15;107832;1257;61233;-77
2023/02/18 10:34:41;;;;;;;8.00;2.20;;;;;;;9.27;59.13;99133.27;107844;1257;73656;-78
2023/02/18 10:37:33;;;;;;;8.10;2.30;;;;;;;9.28;56.41;99124.59;107691;1257;72988;-84
2023/02/18 10:40:34;;;;;;;7.10;1.90;;;;;;;9.29;55.98;99125.33;107818;1259;71787;-78
2023/02/18 10:43:20;;;;;;;7.00;2.00;;;;;;;9.26;55.70;99124.77;107889;1257;61301;-79
2023/02/18 10:46:10;;;;;;;6.70;1.80;;;;;;;9.21;55.10;99142.00;107837;1257;61177;-80
2023/02/18 10:48:50;;;;;;;5.30;1.80;;;;;;;9.18;55.04;99129.66;107848;1257;74408;-81
2023/02/18 10:51:25;;;;;;;7.20;1.90;;;;;;;9.22;55.39;99131.36;107865;1257;71984;-81
2023/02/18 10:53:52;;;;;;;7.90;1.90;;;;;;;9.29;55.18;99127.94;107809;1262;73485;-81
2023/02/18 10:56:42;;;;;;;6.20;2.10;;;;;;;9.34;54.83;99127.95;107804;1257;61251;-77
2023/02/18 10:59:10;;;;;;;8.40;2.10;;;;;;;9.35;54.02;99129.09;107844;1257;61600;-82
2023/02/18 11:01:37;;;;;;;7.40;2.10;;;;;;;9.43;54.24;99118.67;107846;1257;75717;-81
2023/02/18 11:04:13;;;;;;;9.60;1.80;;;;;;;9.54;54.22;99120.23;107842;1257;71140;-78
2023/02/18 11:06:45;;;;;;;5.00;1.60;;;;;;;9.65;53.51;99123.64;107852;1257;71822;-79
2023/02/18 11:09:41;;;;;;;5.90;1.90;;;;;;;9.67;53.05;99127.29;107846;1257;61106;-78
2023/02/18 11:12:21;;;;;;;4.50;1.40;;;;;;;9.66;53.49;99117.39;107830;1257;61315;-83
2023/02/18 11:15:13;;;;;;;;;;;;;;;9.68;53.40;99110.27;107827;1257;74688;-78
2023/02/18 11:17:43;;;;;;;5.40;2.00;;;;;;;9.69;52.78;99113.18;107811;1257;72501;-82
2023/02/18 11:20:31;;;;;;;8.00;2.20;;;;;;;9.64;52.05;99113.15;107835;1257;73683;-83
2023/02/18 11:23:14;;;;;;;7.30;1.80;;;;;;;9.60;51.42;99120.38;107800;1257;61102;-77
2023/02/18 11:25:55;;;;;;;7.50;1.90;;;;;;;9.58;51.16;99124.20;107696;1257;61383;-79
2023/02/18 11:28:28;;;;;;;7.10;1.40;;;;;;;9.61;51.16;99127.41;107696;1257;74385;-78
2023/02/18 11:30:57;;;;;;;5.00;1.50;;;;;;;9.68;50.90;99122.54;107675;1259;73628;-82
2023/02/18 11:33:36;;;;;;;4.40;1.50;;;;;;;9.70;50.69;99125.60;107732;1257;73078;-80
2023/02/18 11:36:21;;;;;;;7.20;1.90;;;;;;;9.71;50.31;99118.08;107791;1257;61241;-79
2023/02/18 11:39:00;;;;;;;4.50;1.40;;;;;;;9.71;50.89;99116.58;107804;1257;61320;-80
2023/02/18 11:41:36;;;;;;;7.20;1.80;;;;;;;9.94;50.42;99112.80;107776;1257;75037;-77
2023/02/18 11:44:24;;;;;;;6.10;1.70;;;;;;;10.05;50.33;99114.30;107847;1257;71672;-83
2023/02/18 11:46:56;;;;;;;5.80;1.60;;;;;;;10.00;50.59;99112.52;107817;1257;72713;-82
2023/02/18 11:49:24;;;;;;;4.40;1.50;;;;;;;10.00;50.75;99114.80;107809;1258;61308;-84
2023/02/18 11:51:51;;;;;;;6.50;1.70;;;;;;;10.00;50.67;99116.52;107794;1257;61335;-82
2023/02/18 11:54:26;;;;;;;6.00;1.80;;;;;;;10.00;50.44;99124.25;107695;1258;73749;-82
2023/02/18 11:56:56;;;;;;;6.10;1.80;;;;;;;9.99;50.45;99113.75;107811;1262;73051;-86
2023/02/18 11:59:23;;;;;;;7.60;1.80;;;;;;;9.99;50.50;99120.90;107691;1257;71596;-82
2023/02/18 12:01:52;;;;;;;7.00;2.00;;;;;;;10.00;50.67;99114.96;107817;1257;61142;-86